createdAt,value
2018-06-14T00:01:02.687Z,24.67
2018-06-14T00:02:11.873Z,24.69
2018-06-14T00:03:21.283Z,24.58
2018-06-14T00:04:30.689Z,24.65
2018-06-14T00:05:40.134Z,24.61
2018-06-14T00:06:48.778Z,24.67
2018-06-14T00:07:58.211Z,24.64
2018-06-14T00:09:07.645Z,24.61
2018-06-14T00:10:17.321Z,24.64
2018-06-14T00:11:26.987Z,24.64
2018-06-14T00:12:36.670Z,24.61
2018-06-14T00:13:45.843Z,24.52
2018-06-14T00:14:55.501Z,24.53
2018-06-14T00:16:04.925Z,24.67
2018-06-14T00:17:14.350Z,24.55
2018-06-14T00:18:23.533Z,24.55
2018-06-14T00:19:33.231Z,24.58
2018-06-14T00:20:42.390Z,24.58
2018-06-14T00:21:51.814Z,24.53
2018-06-14T00:23:00.985Z,24.57
2018-06-14T00:24:10.132Z,24.62
2018-06-14T00:25:19.292Z,24.57
2018-06-14T00:26:28.442Z,24.52
2018-06-14T00:27:37.874Z,24.62
2018-06-14T00:28:47.296Z,24.6
2018-06-14T00:29:56.467Z,24.52
2018-06-14T00:31:05.626Z,24.6
2018-06-14T00:32:15.029Z,24.53
2018-06-14T00:33:23.933Z,24.58
2018-06-14T00:34:33.112Z,24.58
2018-06-14T00:35:42.265Z,24.55
2018-06-14T00:36:51.431Z,24.61
2018-06-14T00:38:01.357Z,24.58
2018-06-14T00:39:10.516Z,24.6
2018-06-14T00:40:20.182Z,24.58
2018-06-14T00:41:29.857Z,24.57
2018-06-14T00:42:39.035Z,24.57
2018-06-14T00:43:48.711Z,24.57
2018-06-14T00:44:58.367Z,24.57
2018-06-14T00:46:07.779Z,24.55
2018-06-14T00:47:17.206Z,24.55
2018-06-14T00:48:26.650Z,24.6
2018-06-14T00:49:36.341Z,24.58
2018-06-14T00:50:45.760Z,24.53
2018-06-14T00:51:55.178Z,24.53
2018-06-14T00:53:04.594Z,24.57
2018-06-14T00:54:14.002Z,24.53
2018-06-14T00:55:23.688Z,24.5
2018-06-14T00:56:32.833Z,24.57
2018-06-14T00:57:42.234Z,24.55
2018-06-14T00:58:51.659Z,24.5
2018-06-14T01:00:01.076Z,24.52
2018-06-14T01:01:10.213Z,24.53
2018-06-14T01:02:19.435Z,24.5
2018-06-14T01:03:29.378Z,24.47
2018-06-14T01:04:38.532Z,24.55
2018-06-14T01:05:48.208Z,24.57
2018-06-14T01:06:57.363Z,24.47
2018-06-14T01:08:06.549Z,24.58
2018-06-14T01:09:15.700Z,24.49
2018-06-14T01:10:25.387Z,24.46
2018-06-14T01:11:34.534Z,24.5
2018-06-14T01:12:44.227Z,24.57
2018-06-14T01:13:53.386Z,24.52
2018-06-14T01:15:02.561Z,24.5
2018-06-14T01:16:11.987Z,24.45
2018-06-14T01:17:21.412Z,24.55
2018-06-14T01:18:31.333Z,24.47
2018-06-14T01:19:40.996Z,24.49
2018-06-14T01:20:50.670Z,24.46
2018-06-14T01:21:59.856Z,24.45
2018-06-14T01:23:09.304Z,24.47
2018-06-14T01:24:18.474Z,24.53
2018-06-14T01:25:27.623Z,24.42
2018-06-14T01:26:36.531Z,24.45
2018-06-14T01:27:46.211Z,24.49
2018-06-14T01:28:55.365Z,24.46
2018-06-14T01:30:04.275Z,24.5
2018-06-14T01:31:13.699Z,24.52
2018-06-14T01:32:23.132Z,24.58
2018-06-14T01:33:32.611Z,24.45
2018-06-14T01:34:42.531Z,24.47
2018-06-14T01:35:52.202Z,24.47
2018-06-14T01:37:01.355Z,24.47
2018-06-14T01:38:10.530Z,24.45
2018-06-14T01:39:19.710Z,24.45
2018-06-14T01:40:28.718Z,24.5
2018-06-14T01:41:38.500Z,24.47
2018-06-14T01:42:48.294Z,24.45
2018-06-14T01:43:57.977Z,24.43
2018-06-14T01:45:07.401Z,24.42
2018-06-14T01:46:17.087Z,24.49
2018-06-14T01:47:26.250Z,24.43
2018-06-14T01:48:35.665Z,24.53
2018-06-14T01:49:44.830Z,24.46
2018-06-14T01:50:54.509Z,24.46
2018-06-14T01:52:03.918Z,24.43
2018-06-14T01:53:13.340Z,24.49
2018-06-14T01:54:23.004Z,24.5
2018-06-14T01:55:32.432Z,24.4
2018-06-14T01:56:41.398Z,24.46
2018-06-14T01:57:51.085Z,24.4
2018-06-14T01:58:59.980Z,24.4
2018-06-14T02:00:10.008Z,24.47
2018-06-14T02:01:19.419Z,24.42
2018-06-14T02:02:28.563Z,24.47
2018-06-14T02:03:38.244Z,24.37
2018-06-14T02:04:47.472Z,24.37
2018-06-14T02:05:56.387Z,24.42
2018-06-14T02:07:05.810Z,24.39
2018-06-14T02:08:15.231Z,24.45
2018-06-14T02:09:24.132Z,24.45
2018-06-14T02:10:33.557Z,24.43
2018-06-14T02:11:42.708Z,24.45
2018-06-14T02:12:52.135Z,24.39
2018-06-14T02:14:01.571Z,24.37
2018-06-14T02:15:10.481Z,24.43
2018-06-14T02:16:19.936Z,24.47
2018-06-14T02:17:29.384Z,24.42
2018-06-14T02:18:39.071Z,24.37
2018-06-14T02:19:48.237Z,24.43
2018-06-14T02:20:57.156Z,24.3
2018-06-14T02:22:06.121Z,24.35
2018-06-14T02:23:15.041Z,24.43
2018-06-14T02:24:24.522Z,24.42
2018-06-14T02:25:33.695Z,24.34
2018-06-14T02:26:43.399Z,24.34
2018-06-14T02:27:52.311Z,24.43
2018-06-14T02:29:01.741Z,24.35
2018-06-14T02:30:10.922Z,24.34
2018-06-14T02:31:20.368Z,24.46
2018-06-14T02:32:29.544Z,24.42
2018-06-14T02:33:39.203Z,24.42
2018-06-14T02:34:48.364Z,24.42
2018-06-14T02:35:58.032Z,24.32
2018-06-14T02:37:07.712Z,24.32
2018-06-14T02:38:17.656Z,24.32
2018-06-14T02:39:27.341Z,24.42
2018-06-14T02:40:36.758Z,24.45
2018-06-14T02:41:46.204Z,24.34
2018-06-14T02:42:55.897Z,24.32
2018-06-14T02:44:05.312Z,24.31
2018-06-14T02:45:14.478Z,24.37
2018-06-14T02:46:23.922Z,24.32
2018-06-14T02:47:33.608Z,24.31
2018-06-14T02:48:43.300Z,24.37
2018-06-14T02:49:52.464Z,24.42
2018-06-14T02:51:01.892Z,24.4
2018-06-14T02:52:11.314Z,24.31
2018-06-14T02:53:20.993Z,24.32
2018-06-14T02:54:30.667Z,24.32
2018-06-14T02:55:39.829Z,24.42
2018-06-14T02:56:49.520Z,24.31
2018-06-14T02:57:58.456Z,24.37
2018-06-14T02:59:07.618Z,24.28
2018-06-14T03:00:16.784Z,24.37
2018-06-14T03:01:26.194Z,24.4
2018-06-14T03:02:35.621Z,24.27
2018-06-14T03:03:44.797Z,24.27
2018-06-14T03:04:54.229Z,24.34
2018-06-14T03:06:03.656Z,24.27
2018-06-14T03:07:13.071Z,24.4
2018-06-14T03:08:22.541Z,24.45
2018-06-14T03:09:32.212Z,24.39
2018-06-14T03:10:42.154Z,24.3
2018-06-14T03:11:51.850Z,24.3
2018-06-14T03:13:00.487Z,24.34
2018-06-14T03:14:09.897Z,24.3
2018-06-14T03:15:19.096Z,24.32
2018-06-14T03:16:28.579Z,24.34
2018-06-14T03:17:38.506Z,24.37
2018-06-14T03:18:47.936Z,24.32
2018-06-14T03:19:57.085Z,24.34
2018-06-14T03:21:06.527Z,24.4
2018-06-14T03:22:15.494Z,24.34
2018-06-14T03:23:25.165Z,24.28
2018-06-14T03:24:34.640Z,24.46
2018-06-14T03:25:44.046Z,24.37
2018-06-14T03:26:52.938Z,24.34
2018-06-14T03:28:02.341Z,24.37
2018-06-14T03:29:11.767Z,24.31
2018-06-14T03:30:21.434Z,24.35
2018-06-14T03:31:30.862Z,24.4
2018-06-14T03:32:40.308Z,24.46
2018-06-14T03:33:50.231Z,24.43
2018-06-14T03:34:59.639Z,24.34
2018-06-14T03:36:08.790Z,24.34
2018-06-14T03:37:18.518Z,24.39
2018-06-14T03:38:28.192Z,24.37
2018-06-14T03:39:37.604Z,24.43
2018-06-14T03:40:47.440Z,24.42
2018-06-14T03:41:56.912Z,24.43
2018-06-14T03:43:06.063Z,24.37
2018-06-14T03:44:15.730Z,24.34
2018-06-14T03:45:25.167Z,24.32
2018-06-14T03:46:34.446Z,24.34
2018-06-14T03:47:43.601Z,24.46
2018-06-14T03:48:52.750Z,24.25
2018-06-14T03:50:02.177Z,24.32
2018-06-14T03:51:11.344Z,24.27
2018-06-14T03:52:21.020Z,24.42
2018-06-14T03:53:30.433Z,24.31
2018-06-14T03:54:40.116Z,24.32
2018-06-14T03:55:49.524Z,24.32
2018-06-14T03:56:58.944Z,24.45
2018-06-14T03:58:08.605Z,24.31
2018-06-14T03:59:17.750Z,24.31
2018-06-14T04:00:26.907Z,24.25
2018-06-14T04:01:36.581Z,24.3
2018-06-14T04:02:45.485Z,24.37
2018-06-14T04:03:54.961Z,24.28
2018-06-14T04:05:04.485Z,24.35
2018-06-14T04:06:13.888Z,24.35
2018-06-14T04:07:23.162Z,24.37
2018-06-14T04:08:32.845Z,24.3
2018-06-14T04:09:42.020Z,24.3
2018-06-14T04:10:51.703Z,24.28
2018-06-14T04:12:01.359Z,24.34
2018-06-14T04:13:10.531Z,24.39
2018-06-14T04:14:20.222Z,24.4
2018-06-14T04:15:29.414Z,24.28
2018-06-14T04:16:39.078Z,24.28
2018-06-14T04:17:47.989Z,24.31
2018-06-14T04:18:57.417Z,24.28
2018-06-14T04:20:07.095Z,24.32
2018-06-14T04:21:16.525Z,24.35
2018-06-14T04:22:26.187Z,24.27
2018-06-14T04:23:35.888Z,24.27
2018-06-14T04:24:44.530Z,24.32
2018-06-14T04:25:54.211Z,24.32
2018-06-14T04:27:03.618Z,24.32
2018-06-14T04:28:12.800Z,24.28
2018-06-14T04:29:22.472Z,24.34
2018-06-14T04:30:32.159Z,24.27
2018-06-14T04:31:41.814Z,24.31
2018-06-14T04:32:51.473Z,24.32
2018-06-14T04:34:01.232Z,24.24
2018-06-14T04:35:10.902Z,24.28
2018-06-14T04:36:20.061Z,24.27
2018-06-14T04:37:29.740Z,24.25
2018-06-14T04:38:39.151Z,24.27
2018-06-14T04:39:48.578Z,24.28
2018-06-14T04:40:57.979Z,24.34
2018-06-14T04:42:07.393Z,24.25
2018-06-14T04:43:16.598Z,24.27
2018-06-14T04:44:25.760Z,24.35
2018-06-14T04:45:35.169Z,24.28
2018-06-14T04:46:44.602Z,24.31
2018-06-14T04:47:54.033Z,24.31
2018-06-14T04:49:03.728Z,24.28
2018-06-14T04:50:13.143Z,24.16
2018-06-14T04:51:22.555Z,24.21
2018-06-14T04:52:31.971Z,24.3
2018-06-14T04:53:41.159Z,24.27
2018-06-14T04:54:50.826Z,24.25
2018-06-14T04:56:00.248Z,24.32
2018-06-14T04:57:09.429Z,24.3
2018-06-14T04:58:18.614Z,24.28
2018-06-14T04:59:28.045Z,24.13
2018-06-14T05:00:37.462Z,24.31
2018-06-14T05:01:46.406Z,24.25
2018-06-14T05:02:56.090Z,24.28
2018-06-14T05:04:05.771Z,24.28
2018-06-14T05:05:14.946Z,24.31
2018-06-14T05:06:24.903Z,24.3
2018-06-14T05:07:33.803Z,24.28
2018-06-14T05:08:43.226Z,24.32
2018-06-14T05:09:53.146Z,24.27
2018-06-14T05:11:02.308Z,24.32
2018-06-14T05:12:12.232Z,24.32
2018-06-14T05:13:21.937Z,24.31
2018-06-14T05:14:31.343Z,24.24
2018-06-14T05:15:40.750Z,24.3
2018-06-14T05:16:50.706Z,24.35
2018-06-14T05:17:59.917Z,24.27
2018-06-14T05:19:09.287Z,24.32
2018-06-14T05:20:18.970Z,24.32
2018-06-14T05:21:28.905Z,24.34
2018-06-14T05:22:38.365Z,24.3
2018-06-14T05:23:47.563Z,24.3
2018-06-14T05:24:56.464Z,24.3
2018-06-14T05:26:05.423Z,24.25
2018-06-14T05:27:14.841Z,24.32
2018-06-14T05:28:24.019Z,24.3
2018-06-14T05:29:33.508Z,24.28
2018-06-14T05:30:43.103Z,24.24
2018-06-14T05:31:52.775Z,24.22
2018-06-14T05:33:02.203Z,24.24
2018-06-14T05:34:11.405Z,24.28
2018-06-14T05:35:20.842Z,24.21
2018-06-14T05:36:30.263Z,24.3
2018-06-14T05:37:39.425Z,24.22
2018-06-14T05:38:48.085Z,24.22
2018-06-14T05:39:57.277Z,24.16
2018-06-14T05:41:07.038Z,24.2
2018-06-14T05:42:16.555Z,24.2
2018-06-14T05:43:26.504Z,24.16
2018-06-14T05:44:36.318Z,24.24
2018-06-14T05:45:45.896Z,24.1
2018-06-14T05:46:54.828Z,24.24
2018-06-14T05:48:03.984Z,24.09
2018-06-14T05:49:13.950Z,24.22
2018-06-14T05:50:23.670Z,24.18
2018-06-14T05:51:32.569Z,24.21
2018-06-14T05:52:42.244Z,24.15
2018-06-14T05:53:51.661Z,24.09
2018-06-14T05:55:01.086Z,24.1
2018-06-14T05:56:10.082Z,24.18
2018-06-14T05:57:19.222Z,24.18
2018-06-14T05:58:28.114Z,24.21
2018-06-14T05:59:37.800Z,24.16
2018-06-14T06:00:47.227Z,24.15
2018-06-14T06:01:56.386Z,24.22
2018-06-14T06:03:05.288Z,24.12
2018-06-14T06:04:15.230Z,24.2
2018-06-14T06:05:24.658Z,24.18
2018-06-14T06:06:34.064Z,24.21
2018-06-14T06:07:43.235Z,24.27
2018-06-14T06:08:52.939Z,24.12
2018-06-14T06:10:02.359Z,24.24
2018-06-14T06:11:11.778Z,24.13
2018-06-14T06:12:20.970Z,24.18
2018-06-14T06:13:29.635Z,24.21
2018-06-14T06:14:38.814Z,24.22
2018-06-14T06:15:48.491Z,24.25
2018-06-14T06:16:58.171Z,24.25
2018-06-14T06:18:08.143Z,24.15
2018-06-14T06:19:17.565Z,24.32
2018-06-14T06:20:26.728Z,24.27
2018-06-14T06:21:36.177Z,24.31
2018-06-14T06:22:45.349Z,24.2
2018-06-14T06:23:55.014Z,24.3
2018-06-14T06:25:04.704Z,24.27
2018-06-14T06:26:14.579Z,24.3
2018-06-14T06:27:23.850Z,24.34
2018-06-14T06:28:33.789Z,24.27
2018-06-14T06:29:43.197Z,24.28
2018-06-14T06:30:53.173Z,24.32
2018-06-14T06:32:02.876Z,24.3
2018-06-14T06:33:12.731Z,24.32
2018-06-14T06:34:22.139Z,24.3
2018-06-14T06:35:31.821Z,24.24
2018-06-14T06:36:41.267Z,24.3
2018-06-14T06:37:50.762Z,24.27
2018-06-14T06:38:59.951Z,24.3
2018-06-14T06:40:09.890Z,24.32
2018-06-14T06:41:18.808Z,24.3
2018-06-14T06:42:28.774Z,24.25
2018-06-14T06:43:37.947Z,24.32
2018-06-14T06:44:47.652Z,24.32
2018-06-14T06:45:57.083Z,24.31
2018-06-14T06:47:06.550Z,24.31
2018-06-14T06:48:15.456Z,24.28
2018-06-14T06:49:24.890Z,24.34
2018-06-14T06:50:34.053Z,24.27
2018-06-14T06:51:43.481Z,24.31
2018-06-14T06:52:52.906Z,24.34
2018-06-14T06:54:02.130Z,24.3
2018-06-14T06:55:11.581Z,24.39
2018-06-14T06:56:21.421Z,24.3
2018-06-14T06:57:30.848Z,24.35
2018-06-14T06:58:40.393Z,24.3
2018-06-14T06:59:49.942Z,24.34
2018-06-14T07:00:59.660Z,24.37
2018-06-14T07:02:08.841Z,24.31
2018-06-14T07:03:18.541Z,24.3
2018-06-14T07:04:27.472Z,24.32
2018-06-14T07:05:36.897Z,24.32
2018-06-14T07:06:46.328Z,24.28
2018-06-14T07:07:55.498Z,24.28
2018-06-14T07:09:05.173Z,24.4
2018-06-14T07:10:14.634Z,24.34
2018-06-14T07:11:23.877Z,24.43
2018-06-14T07:12:33.950Z,24.35
2018-06-14T07:13:43.133Z,24.34
2018-06-14T07:14:52.295Z,24.31
2018-06-14T07:16:01.970Z,24.37
2018-06-14T07:17:11.182Z,24.28
2018-06-14T07:18:20.343Z,24.24
2018-06-14T07:19:29.495Z,24.43
2018-06-14T07:20:38.924Z,24.32
2018-06-14T07:21:47.863Z,24.43
2018-06-14T07:22:57.597Z,24.4
2018-06-14T07:24:07.278Z,24.46
2018-06-14T07:25:16.710Z,24.43
2018-06-14T07:26:26.384Z,24.45
2018-06-14T07:27:36.109Z,24.42
2018-06-14T07:28:45.607Z,24.39
2018-06-14T07:29:55.034Z,24.35
2018-06-14T07:31:04.747Z,24.4
2018-06-14T07:32:13.918Z,24.43
2018-06-14T07:33:23.351Z,24.39
2018-06-14T07:34:32.518Z,24.32
2018-06-14T07:35:41.958Z,24.42
2018-06-14T07:36:51.696Z,24.37
2018-06-14T07:38:00.905Z,24.34
2018-06-14T07:39:10.333Z,24.39
2018-06-14T07:40:19.865Z,24.31
2018-06-14T07:41:29.161Z,24.31
2018-06-14T07:42:39.183Z,24.39
2018-06-14T07:43:48.606Z,24.32
2018-06-14T07:44:57.573Z,24.46
2018-06-14T07:46:07.538Z,24.42
2018-06-14T07:47:16.946Z,24.34
2018-06-14T07:48:26.618Z,24.32
2018-06-14T07:49:35.521Z,24.43
2018-06-14T07:50:44.690Z,24.39
2018-06-14T07:51:54.370Z,24.32
2018-06-14T07:53:03.528Z,24.34
2018-06-14T07:54:13.044Z,24.37
2018-06-14T07:55:22.680Z,24.32
2018-06-14T07:56:32.112Z,24.34
2018-06-14T07:57:41.287Z,24.42
2018-06-14T07:58:50.719Z,24.45
2018-06-14T08:00:00.805Z,24.28
2018-06-14T08:01:10.420Z,24.31
2018-06-14T08:02:19.850Z,24.43
2018-06-14T08:03:29.350Z,24.4
2018-06-14T08:04:39.048Z,24.3
2018-06-14T08:05:48.745Z,24.31
2018-06-14T08:06:58.179Z,24.32
2018-06-14T08:08:07.605Z,24.3
2018-06-14T08:09:16.511Z,24.31
2018-06-14T08:10:26.194Z,24.3
2018-06-14T08:11:36.141Z,24.32
2018-06-14T08:12:45.447Z,24.45
2018-06-14T08:13:55.451Z,24.3
2018-06-14T08:15:04.628Z,24.39
2018-06-14T08:16:13.798Z,24.34
2018-06-14T08:17:22.963Z,24.45
2018-06-14T08:18:32.661Z,24.42
2018-06-14T08:19:42.108Z,24.28
2018-06-14T08:20:51.289Z,24.3
2018-06-14T08:22:00.467Z,24.45
2018-06-14T08:23:09.401Z,24.34
2018-06-14T08:24:18.852Z,24.32
2018-06-14T08:25:28.629Z,24.45
2018-06-14T08:26:37.559Z,24.32
2018-06-14T08:27:46.475Z,24.3
2018-06-14T08:28:55.417Z,24.45
2018-06-14T08:30:04.592Z,24.3
2018-06-14T08:31:14.025Z,24.34
2018-06-14T08:32:22.946Z,24.27
2018-06-14T08:33:32.114Z,24.31
2018-06-14T08:34:42.095Z,24.39
2018-06-14T08:35:51.784Z,24.4
2018-06-14T08:37:01.724Z,24.39
2018-06-14T08:38:10.962Z,24.27
2018-06-14T08:39:20.122Z,24.37
2018-06-14T08:40:29.551Z,24.3
2018-06-14T08:41:39.249Z,24.31
2018-06-14T08:42:48.658Z,24.28
2018-06-14T08:43:57.831Z,24.46
2018-06-14T08:45:07.251Z,24.28
2018-06-14T08:46:16.681Z,24.45
2018-06-14T08:47:26.362Z,24.28
2018-06-14T08:48:35.524Z,24.47
2018-06-14T08:49:44.718Z,24.4
2018-06-14T08:50:54.169Z,24.32
2018-06-14T08:52:03.614Z,24.31
2018-06-14T08:53:12.520Z,24.28
2018-06-14T08:54:21.986Z,24.31
2018-06-14T08:55:31.163Z,24.3
2018-06-14T08:56:40.665Z,24.32
2018-06-14T08:57:49.584Z,24.34
2018-06-14T08:58:59.010Z,24.31
2018-06-14T09:00:08.266Z,24.47
2018-06-14T09:01:18.018Z,24.43
2018-06-14T09:02:27.794Z,24.32
2018-06-14T09:03:36.986Z,24.32
2018-06-14T09:04:46.504Z,24.34
2018-06-14T09:05:56.137Z,24.32
2018-06-14T09:07:05.647Z,24.32
2018-06-14T09:08:15.170Z,24.32
2018-06-14T09:09:24.656Z,24.37
2018-06-14T09:10:34.131Z,24.34
2018-06-14T09:11:43.865Z,24.4
2018-06-14T09:12:53.532Z,24.37
2018-06-14T09:14:03.933Z,24.31
2018-06-14T09:15:13.841Z,24.42
2018-06-14T09:16:23.373Z,24.4
2018-06-14T09:17:32.795Z,24.4
2018-06-14T09:18:42.212Z,24.47
2018-06-14T09:19:51.927Z,24.43
2018-06-14T09:21:01.642Z,24.34
2018-06-14T09:22:10.824Z,24.31
2018-06-14T09:23:20.252Z,24.47
2018-06-14T09:24:30.182Z,24.43
2018-06-14T09:25:39.609Z,24.43
2018-06-14T09:26:49.035Z,24.42
2018-06-14T09:27:58.745Z,24.4
2018-06-14T09:29:08.700Z,24.39
2018-06-14T09:30:18.389Z,24.45
2018-06-14T09:31:28.068Z,24.32
2018-06-14T09:32:37.759Z,24.34
2018-06-14T09:33:47.195Z,24.45
2018-06-14T09:34:56.113Z,24.39
2018-06-14T09:36:05.271Z,24.31
2018-06-14T09:37:14.963Z,24.37
2018-06-14T09:38:23.915Z,24.43
2018-06-14T09:39:33.332Z,24.4
2018-06-14T09:40:42.755Z,24.39
2018-06-14T09:41:52.449Z,24.35
2018-06-14T09:43:02.173Z,24.34
2018-06-14T09:44:12.361Z,24.49
2018-06-14T09:45:21.276Z,24.31
2018-06-14T09:46:30.442Z,24.42
2018-06-14T09:47:39.875Z,24.39
2018-06-14T09:48:49.047Z,24.55
2018-06-14T09:49:58.725Z,24.49
2018-06-14T09:51:07.890Z,24.43
2018-06-14T09:52:17.058Z,24.45
2018-06-14T09:53:27.002Z,24.4
2018-06-14T09:54:36.694Z,24.42
2018-06-14T09:55:45.892Z,24.49
2018-06-14T09:56:55.579Z,24.39
2018-06-14T09:58:05.006Z,24.46
2018-06-14T09:59:14.433Z,24.42
2018-06-14T10:00:23.716Z,24.4
2018-06-14T10:01:33.496Z,24.53
2018-06-14T10:02:42.667Z,24.39
2018-06-14T10:03:51.834Z,24.39
2018-06-14T10:05:00.982Z,24.43
2018-06-14T10:06:11.525Z,24.43
2018-06-14T10:07:21.015Z,24.42
2018-06-14T10:08:30.184Z,24.42
2018-06-14T10:09:39.870Z,24.4
2018-06-14T10:10:49.299Z,24.49
2018-06-14T10:11:58.726Z,24.39
2018-06-14T10:13:08.685Z,24.46
2018-06-14T10:14:18.097Z,24.4
2018-06-14T10:15:27.521Z,24.32
2018-06-14T10:16:37.216Z,24.39
2018-06-14T10:17:47.142Z,24.43
2018-06-14T10:18:55.803Z,24.39
2018-06-14T10:20:05.253Z,24.43
2018-06-14T10:21:14.685Z,24.42
2018-06-14T10:22:23.891Z,24.34
2018-06-14T10:23:33.312Z,24.42
2018-06-14T10:24:42.746Z,24.43
2018-06-14T10:25:52.195Z,24.31
2018-06-14T10:27:01.368Z,24.45
2018-06-14T10:28:10.284Z,24.46
2018-06-14T10:29:19.958Z,24.39
2018-06-14T10:30:29.678Z,24.47
2018-06-14T10:31:39.105Z,24.46
2018-06-14T10:32:48.352Z,24.37
2018-06-14T10:33:57.804Z,24.4
2018-06-14T10:35:06.484Z,24.42
2018-06-14T10:36:15.399Z,24.46
2018-06-14T10:37:25.370Z,24.46
2018-06-14T10:38:34.556Z,24.47
2018-06-14T10:39:44.305Z,24.5
2018-06-14T10:40:53.756Z,24.4
2018-06-14T10:42:03.187Z,24.31
2018-06-14T10:43:12.919Z,24.37
2018-06-14T10:44:22.120Z,24.42
2018-06-14T10:45:32.060Z,24.34
2018-06-14T10:46:41.483Z,24.49
2018-06-14T10:47:51.173Z,24.43
2018-06-14T10:49:00.346Z,24.32
2018-06-14T10:50:09.769Z,24.42
2018-06-14T10:51:18.985Z,24.46
2018-06-14T10:52:28.843Z,24.35
2018-06-14T10:53:38.082Z,24.4
2018-06-14T10:54:47.512Z,24.35
2018-06-14T10:55:57.192Z,24.46
2018-06-14T10:57:06.369Z,24.37
2018-06-14T10:58:15.579Z,24.39
2018-06-14T10:59:24.991Z,24.39
2018-06-14T11:00:34.675Z,24.43
2018-06-14T11:01:44.663Z,24.42
2018-06-14T11:02:53.592Z,24.37
2018-06-14T11:04:03.539Z,24.4
2018-06-14T11:05:12.713Z,24.43
2018-06-14T11:06:21.384Z,24.4
2018-06-14T11:07:30.804Z,24.46
2018-06-14T11:08:40.502Z,24.47
2018-06-14T11:09:49.926Z,24.42
2018-06-14T11:10:59.141Z,24.31
2018-06-14T11:12:08.820Z,24.39
2018-06-14T11:13:18.399Z,24.43
2018-06-14T11:14:27.854Z,24.39
2018-06-14T11:15:37.353Z,24.43
2018-06-14T11:16:47.321Z,24.46
2018-06-14T11:17:56.775Z,24.47
2018-06-14T11:19:05.691Z,24.5
2018-06-14T11:20:15.443Z,24.43
2018-06-14T11:21:25.243Z,24.46
2018-06-14T11:22:34.673Z,24.46
2018-06-14T11:23:43.844Z,24.39
2018-06-14T11:24:53.264Z,24.39
2018-06-14T11:26:02.444Z,24.34
2018-06-14T11:27:12.135Z,24.4
2018-06-14T11:28:21.298Z,24.46
2018-06-14T11:29:30.724Z,24.42
2018-06-14T11:30:40.410Z,24.47
2018-06-14T11:31:49.854Z,24.35
2018-06-14T11:32:59.020Z,24.49
2018-06-14T11:34:08.184Z,24.4
2018-06-14T11:35:18.192Z,24.45
2018-06-14T11:36:28.135Z,24.47
2018-06-14T11:37:37.821Z,24.47
2018-06-14T11:38:47.265Z,24.47
2018-06-14T11:39:56.937Z,24.35
2018-06-14T11:41:06.096Z,24.45
2018-06-14T11:42:15.528Z,24.45
2018-06-14T11:43:24.950Z,24.4
2018-06-14T11:44:34.375Z,24.46
2018-06-14T11:45:43.821Z,24.49
2018-06-14T11:46:53.311Z,24.47
2018-06-14T11:48:02.741Z,24.47
2018-06-14T11:49:12.437Z,24.5
2018-06-14T11:50:21.930Z,24.47
2018-06-14T11:51:31.876Z,24.5
2018-06-14T11:52:41.574Z,24.46
2018-06-14T11:53:51.263Z,24.49
2018-06-14T11:55:00.715Z,24.46
2018-06-14T11:56:10.139Z,24.46
2018-06-14T11:57:19.057Z,24.49
2018-06-14T11:58:28.482Z,24.49
2018-06-14T11:59:37.975Z,24.42
2018-06-14T12:00:48.120Z,24.49
2018-06-14T12:01:57.809Z,24.45
2018-06-14T12:03:07.510Z,24.5
2018-06-14T12:04:16.691Z,24.53
2018-06-14T12:05:26.635Z,24.47
2018-06-14T12:06:35.805Z,24.43
2018-06-14T12:07:44.468Z,24.52
2018-06-14T12:08:53.894Z,24.49
2018-06-14T12:10:03.349Z,24.52
2018-06-14T12:11:12.809Z,24.49
2018-06-14T12:12:22.261Z,24.53
2018-06-14T12:13:31.700Z,24.46
2018-06-14T12:14:40.628Z,24.45
2018-06-14T12:15:50.066Z,24.49
2018-06-14T12:16:59.549Z,24.46
2018-06-14T12:18:08.958Z,24.43
2018-06-14T12:19:18.140Z,24.49
2018-06-14T12:20:27.988Z,24.5
2018-06-14T12:21:37.183Z,24.5
2018-06-14T12:22:46.617Z,24.53
2018-06-14T12:23:56.046Z,24.49
2018-06-14T12:25:05.725Z,24.49
2018-06-14T12:26:15.411Z,24.45
2018-06-14T12:27:25.117Z,24.46
2018-06-14T12:28:34.543Z,24.49
2018-06-14T12:29:43.488Z,24.46
2018-06-14T12:30:52.915Z,24.57
2018-06-14T12:32:02.629Z,24.47
2018-06-14T12:33:12.072Z,24.45
2018-06-14T12:34:21.743Z,24.5
2018-06-14T12:35:30.906Z,24.45
2018-06-14T12:36:40.847Z,24.49
2018-06-14T12:37:50.405Z,24.57
2018-06-14T12:38:59.900Z,24.43
2018-06-14T12:40:09.600Z,24.49
2018-06-14T12:41:18.764Z,24.46
2018-06-14T12:42:28.458Z,24.46
2018-06-14T12:43:37.669Z,24.46
2018-06-14T12:44:47.354Z,24.49
2018-06-14T12:45:57.039Z,24.43
2018-06-14T12:47:06.465Z,24.58
2018-06-14T12:48:15.632Z,24.5
2018-06-14T12:49:24.828Z,24.52
2018-06-14T12:50:34.517Z,24.5
2018-06-14T12:51:43.948Z,24.49
2018-06-14T12:52:52.863Z,24.55
2018-06-14T12:54:02.032Z,24.49
2018-06-14T12:55:11.461Z,24.53
2018-06-14T12:56:20.890Z,24.49
2018-06-14T12:57:30.319Z,24.52
2018-06-14T12:58:40.124Z,24.5
2018-06-14T12:59:49.840Z,24.49
2018-06-14T13:00:59.292Z,24.57
2018-06-14T13:02:09.236Z,24.53
2018-06-14T13:03:18.400Z,24.5
2018-06-14T13:04:28.105Z,24.52
2018-06-14T13:05:38.051Z,24.55
2018-06-14T13:06:47.762Z,24.55
2018-06-14T13:07:57.194Z,24.49
2018-06-14T13:09:06.102Z,24.57
2018-06-14T13:10:15.278Z,24.53
2018-06-14T13:11:24.700Z,24.5
2018-06-14T13:12:33.875Z,24.53
2018-06-14T13:13:43.044Z,24.45
2018-06-14T13:14:52.220Z,24.53
2018-06-14T13:16:01.903Z,24.61
2018-06-14T13:17:11.096Z,24.53
2018-06-14T13:18:20.784Z,24.49
2018-06-14T13:19:29.956Z,24.55
2018-06-14T13:20:39.391Z,24.57
2018-06-14T13:21:48.833Z,24.53
2018-06-14T13:22:58.519Z,24.47
2018-06-14T13:24:07.950Z,24.5
2018-06-14T13:25:17.502Z,24.5
2018-06-14T13:26:27.217Z,24.52
2018-06-14T13:27:37.206Z,24.62
2018-06-14T13:28:46.889Z,24.46
2018-06-14T13:29:56.337Z,24.57
2018-06-14T13:31:06.388Z,24.55
2018-06-14T13:32:16.084Z,24.55
2018-06-14T13:33:25.573Z,24.57
2018-06-14T13:34:34.486Z,24.45
2018-06-14T13:35:43.397Z,24.57
2018-06-14T13:36:53.082Z,24.53
2018-06-14T13:38:02.498Z,24.49
2018-06-14T13:39:11.667Z,24.53
2018-06-14T13:40:21.093Z,24.53
2018-06-14T13:41:30.279Z,24.52
2018-06-14T13:42:39.801Z,24.58
2018-06-14T13:43:48.994Z,24.55
2018-06-14T13:44:58.685Z,24.47
2018-06-14T13:46:08.387Z,24.5
2018-06-14T13:47:17.823Z,24.49
2018-06-14T13:48:27.292Z,24.52
2018-06-14T13:49:37.063Z,24.5
2018-06-14T13:50:46.673Z,24.49
2018-06-14T13:51:56.353Z,24.57
2018-06-14T13:53:05.774Z,24.45
2018-06-14T13:54:15.474Z,24.46
2018-06-14T13:55:25.331Z,24.47
2018-06-14T13:56:35.141Z,24.52
2018-06-14T13:57:44.884Z,24.53
2018-06-14T13:58:54.701Z,24.52
2018-06-14T14:00:04.141Z,24.53
2018-06-14T14:01:14.393Z,24.53
2018-06-14T14:02:23.757Z,24.52
2018-06-14T14:03:33.788Z,24.55
2018-06-14T14:04:43.285Z,24.5
2018-06-14T14:05:53.033Z,24.55
2018-06-14T14:07:02.190Z,24.52
2018-06-14T14:08:11.353Z,24.52
2018-06-14T14:09:21.037Z,24.5
2018-06-14T14:10:30.468Z,24.5
2018-06-14T14:11:39.893Z,24.57
2018-06-14T14:12:49.065Z,24.57
2018-06-14T14:13:58.497Z,24.52
2018-06-14T14:15:07.415Z,24.49
2018-06-14T14:16:16.844Z,24.47
2018-06-14T14:17:26.272Z,24.5
2018-06-14T14:18:35.952Z,24.61
2018-06-14T14:19:45.126Z,24.53
2018-06-14T14:20:54.561Z,24.55
2018-06-14T14:22:04.051Z,24.58
2018-06-14T14:23:13.244Z,24.53
2018-06-14T14:24:22.909Z,24.53
2018-06-14T14:25:32.336Z,24.55
2018-06-14T14:26:41.512Z,24.57
2018-06-14T14:27:51.190Z,24.49
2018-06-14T14:29:00.369Z,24.49
2018-06-14T14:30:09.797Z,24.55
2018-06-14T14:31:19.527Z,24.5
2018-06-14T14:32:28.715Z,24.55
2018-06-14T14:33:38.683Z,24.55
2018-06-14T14:34:48.649Z,24.6
2018-06-14T14:35:58.352Z,24.52
2018-06-14T14:37:08.270Z,24.53
2018-06-14T14:38:17.961Z,24.55
2018-06-14T14:39:27.165Z,24.49
2018-06-14T14:40:36.331Z,24.52
2018-06-14T14:41:45.509Z,24.52
2018-06-14T14:42:54.672Z,24.46
2018-06-14T14:44:04.405Z,24.42
2018-06-14T14:45:13.582Z,24.5
2018-06-14T14:46:23.263Z,24.52
2018-06-14T14:47:33.194Z,24.49
2018-06-14T14:48:42.685Z,24.55
2018-06-14T14:49:52.418Z,24.49
2018-06-14T14:51:02.135Z,24.42
2018-06-14T14:52:11.050Z,24.53
2018-06-14T14:53:20.061Z,24.55
2018-06-14T14:54:28.627Z,24.5
2018-06-14T14:55:38.570Z,24.52
2018-06-14T14:56:48.269Z,24.55
2018-06-14T14:57:57.438Z,24.49
2018-06-14T14:59:06.853Z,24.5